D/T METAR WX W/DIR W/SPE G/SPE TEMP DEWP
23/05/19 12:50 EGXZ 231150Z AUTO 24009KT 9999 FEW045/// SCT070/// 17/09 Q1015 WSW (240°) 10.4mph 17°C 9°C
23/05/19 11:50 EGXZ 231050Z AUTO 24011KT 9999 BKN080/// 15/09 Q1015 WSW (240°) 12.7mph 15°C 9°C
23/05/19 10:50 EGXZ 230950Z AUTO 25011KT 9999 FEW080/// BKN120/// 14/09 Q1015 WSW (250°) 12.7mph 14°C 9°C
23/05/19 09:50 EGXZ 230850Z AUTO 23011KT 9999 BKN120/// 13/08 Q1016 SW (230°) 12.7mph 13°C 8°C
23/05/19 08:50 EGXZ 230750Z AUTO 24010KT 9999 BKN100/// 13/06 Q1015 WSW (240°) 11.5mph 13°C 6°C
23/05/19 07:50 EGXZ 230650Z AUTO 24010KT 9999 OVC130/// 13/07 Q1016 WSW (240°) 11.5mph 13°C 7°C
23/05/19 06:50 EGXZ 230550Z AUTO 14004KT 9999 BKN120/// 08/06 Q1015 SE (140°) 4.6mph 8°C 6°C
23/05/19 05:50 EGXZ 230450Z AUTO 09004KT 9999 FEW130/// BKN170/// 03/02 Q1015 E (90°) 4.6mph 3°C 2°C
23/05/19 04:50 EGXZ 230350Z AUTO 19005KT 9999 SCT170/// 04/03 Q1015 S (190°) 5.8mph 4°C 3°C
23/05/19 03:50 EGXZ 230250Z AUTO 10004KT 9999 NCD 02/01 Q1016 E (100°) 4.6mph 2°C 1°C
23/05/19 02:50 EGXZ 230150Z AUTO 15003KT 9999 FEW220/// 04/02 Q1016 SSE (150°) 3.5mph 4°C 2°C
23/05/19 01:50 EGXZ 230050Z AUTO 10002KT 9999 NCD 03/M00 Q1016 E (100°) 2.3mph 3°C 0°C
23/05/19 00:50 EGXZ 222350Z AUTO 06002KT 9999 FEW210/// 06/03 Q1016 ENE (60°) 2.3mph 6°C 3°C
22/05/19 23:50 EGXZ 222250Z AUTO 14003KT 9999 BKN180/// SCT220/// 06/02 Q1016 SE (140°) 3.5mph 6°C 2°C
22/05/19 22:50 EGXZ 222150Z AUTO 28003KT 9999 BKN190/// 10/02 Q1016 W (280°) 3.5mph 10°C 2°C
22/05/19 21:50 EGXZ 222050Z AUTO 26006KT 9999 FEW210/// 11/04 Q1016 W (260°) 6.9mph 11°C 4°C
22/05/19 20:50 EGXZ 221950Z AUTO 25005KT 9999 FEW180/// 13/05 Q1016 WSW (250°) 5.8mph 13°C 5°C
22/05/19 19:50 EGXZ 221850Z AUTO 26009KT 9999 NCD 15/05 Q1016 W (260°) 10.4mph 15°C 5°C
22/05/19 18:50 EGXZ 221750Z AUTO 26012KT 9999 FEW049/// 17/06 Q1016 W (260°) 13.8mph 17°C 6°C
22/05/19 17:50 EGXZ 221650Z AUTO 26014KT 9999 NCD 17/06 Q1016 W (260°) 16.1mph 17°C 6°C
22/05/19 16:50 EGXZ 221550Z AUTO 25015KT 9999 SCT050/// 18/05 Q1016 WSW (250°) 17.3mph 18°C 5°C
22/05/19 15:50 EGXZ 221450Z 26014KT CAVOK 18/05 Q1016 BLU W (260°) 16.1mph 18°C 5°C
22/05/19 14:50 EGXZ 221350Z 27015KT CAVOK 18/05 Q1017 BLU W (270°) 17.3mph 18°C 5°C
22/05/19 13:50 EGXZ 221250Z 27014KT CAVOK 18/05 Q1017 BLU W (270°) 16.1mph 18°C 5°C
22/05/19 12:50 EGXZ 221150Z 28014KT CAVOK 18/05 Q1017 BLU W (280°) 16.1mph 18°C 5°C
22/05/19 11:50 EGXZ 221050Z 28013KT CAVOK 17/06 Q1017 BLU W (280°) 15.0mph 17°C 6°C
22/05/19 10:50 EGXZ 220950Z 28013KT 9999 SCT043 15/05 Q1018 BLU W (280°) 15.0mph 15°C 5°C
22/05/19 09:50 EGXZ 220850Z 24011KT 9999 FEW030 SCT034 15/07 Q1018 BLU WSW (240°) 12.7mph 15°C 7°C
22/05/19 08:50 EGXZ 220750Z 23005KT 9999 FEW016 13/07 Q1018 BLU SW (230°) 5.8mph 13°C 7°C
22/05/19 07:50 EGXZ 220650Z AUTO 01001KT 9999 NCD 10/06 Q1018 N (10°) 1.2mph 10°C 6°C
22/05/19 06:50 EGXZ 220550Z AUTO 14001KT 9999 NCD 07/05 Q1018 SE (140°) 1.2mph 7°C 5°C
22/05/19 05:50 EGXZ 220450Z AUTO 28003KT 9999 NCD 06/04 Q1018 W (280°) 3.5mph 6°C 4°C
22/05/19 04:50 EGXZ 220350Z AUTO 03002KT 9999 NCD 02/01 Q1018 NNE (30°) 2.3mph 2°C 1°C
22/05/19 03:50 EGXZ 220250Z AUTO 09003KT 9999 NCD 03/02 Q1019 E (90°) 3.5mph 3°C 2°C
22/05/19 02:50 EGXZ 220150Z AUTO 13002KT 9999 NCD 04/02 Q1019 SE (130°) 2.3mph 4°C 2°C
22/05/19 01:50 EGXZ 220050Z AUTO 08002KT 9999 NCD 05/04 Q1019 E (80°) 2.3mph 5°C 4°C
22/05/19 00:50 EGXZ 212350Z AUTO 29004KT 9999 NCD 09/04 Q1019 WNW (290°) 4.6mph 9°C 4°C
21/05/19 23:50 EGXZ 212250Z AUTO 29003KT 9999 NCD 09/06 Q1019 WNW (290°) 3.5mph 9°C 6°C
21/05/19 22:50 EGXZ 212150Z AUTO 32005KT 9999 NCD 10/06 Q1019 NW (320°) 5.8mph 10°C 6°C
21/05/19 21:50 EGXZ 212050Z AUTO 29006KT 9999 NCD 11/06 Q1019 WNW (290°) 6.9mph 11°C 6°C
21/05/19 20:50 EGXZ 211950Z AUTO 27008KT 9999 NCD 14/06 Q1018 W (270°) 9.2mph 14°C 6°C
21/05/19 19:50 EGXZ 211850Z AUTO 27011KT 9999 NCD 15/06 Q1018 W (270°) 12.7mph 15°C 6°C
21/05/19 18:50 EGXZ 211750Z AUTO 30011KT 9999 SCT045/// 17/07 Q1017 WNW (300°) 12.7mph 17°C 7°C
21/05/19 17:50 EGXZ 211650Z AUTO 33006KT 9999 BKN042/// 17/09 Q1017 NNW (330°) 6.9mph 17°C 9°C
21/05/19 16:50 EGXZ 211550Z AUTO 33004KT 9999 BKN046/// 18/08 Q1017 NNW (330°) 4.6mph 18°C 8°C
21/05/19 15:50 EGXZ 211450Z AUTO 02007KT 9999 BKN050/// 17/08 Q1017 NNE (20°) 8.1mph 17°C 8°C
21/05/19 14:50 EGXZ 211350Z AUTO 32008KT 9999 BKN050/// 17/07 Q1018 NW (320°) 9.2mph 17°C 7°C
21/05/19 13:50 EGXZ 211250Z AUTO 30005KT 9999 FEW045/// 18/07 Q1017 WNW (300°) 5.8mph 18°C 7°C